Last 7 Days

Middletown-South

Hourly Data | America/Los_Angeles
as of 9/3/26 12:24 AM PDT
Date & Time Temp (°F) RH (%) Dew Pt (°F) Wet Bulb (°F) Wind Dir (°) Wind Spd (mph) Wind Gust (mph) Leaf Wet (mins) BatVolt (V) Latest Rain (In) Max Rain Intensity (In/Hr) Precip 24Hr (In) Storm Total (In) Daily Rain (In) Daily Min Temp (°F) Daily Max Temp (°F) Daily Max Wind (mph) Daily Leaf Wet (Hrs)
9/3/26 - 0000 56.9 82 51.3 54.6 SSW | 212 5.7 16.2 0.0 12.6 0.00 - 0.22 0.22 0.22 54.4 71.1 16.9 6.5
9/2/26 - 2300 57.1 82 51.5 54.8 SW | 218 5.8 14.5 0.0 12.6 0.00 - 0.22 0.22 0.22 54.4 71.1 16.9 6.5
9/2/26 - 2200 58.0 80 51.8 55.3 SW | 218 5.5 15.3 0.0 12.7 0.00 - 0.22 0.22 0.22 54.4 71.1 16.9 6.5
9/2/26 - 2100 59.4 77 52.4 56.2 SW | 231 4.4 12.3 0.0 12.7 0.00 - 0.22 0.22 0.22 54.4 71.1 16.9 6.5
9/2/26 - 2000 62.2 71 52.5 57.3 SW | 219 5.1 14.8 0.0 12.8 0.00 - 0.22 0.22 0.22 54.4 71.1 16.9 6.5
9/2/26 - 1900 66.4 59 51.5 58.0 SW | 217 5.7 16.9 0.0 13.0 0.00 - 0.22 0.22 0.22 54.4 71.1 16.9 6.5
9/2/26 - 1800 68.4 56 52.0 59.0 SSW | 202 3.9 14.1 0.0 13.2 0.00 - 0.22 0.22 0.22 54.4 71.1 14.1 6.5
9/2/26 - 1700 69.8 52 51.6 59.0 SSW | 211 4.2 13.2 0.0 13.2 0.00 - 0.22 0.22 0.22 54.4 71.1 13.6 6.5
9/2/26 - 1600 69.2 53 51.3 58.7 SSW | 203 3.6 10.3 0.0 13.2 0.00 - 0.22 0.22 0.22 54.4 70.6 13.6 6.5
9/2/26 - 1500 68.0 58 52.8 59.3 SW | 224 4.5 12.3 0.0 13.2 0.00 - 0.22 0.22 0.22 54.4 70.0 13.6 6.5
9/2/26 - 1400 66.7 65 54.8 60.2 SSW | 212 5.0 13.6 0.0 13.2 0.00 - 0.22 0.22 0.22 54.4 68.1 13.6 6.5
9/2/26 - 1300 65.2 70 55.0 59.9 WSW | 246 4.5 12.5 0.0 13.2 0.00 - 0.22 0.22 0.22 54.4 68.0 13.2 6.5
9/2/26 - 1200 61.6 83 56.2 59.6 SW | 230 4.0 11.0 26.6 13.3 0.00 - 0.22 0.22 0.22 54.4 64.3 13.2 6.5
9/2/26 - 1100 60.0 90 57.1 59.6 SW | 231 3.7 13.2 52.8 13.3 0.01 0.01 0.22 0.22 0.22 54.4 60.6 13.2 6.0
9/2/26 - 1000 58.8 95 57.5 59.5 WNW | 300 0.7 3.0 60.0 13.3 0.01 0.01 0.21 0.21 0.21 54.4 60.4 9.6 5.2
9/2/26 - 0900 56.5 98 55.8 57.4 N | 3 0.9 3.6 60.0 13.4 0.05 0.10 0.20 0.20 0.20 54.4 58.7 9.6 4.2
9/2/26 - 0800 55.2 97 54.3 55.9 N | 349 1.0 3.1 60.0 12.7 0.07 0.09 0.15 0.15 0.15 54.4 58.7 9.6 3.2
9/2/26 - 0700 54.7 96 53.5 55.1 W | 275 0.3 1.9 60.0 12.5 0.06 0.10 0.08 - 0.08 54.4 58.7 9.6 2.2
9/2/26 - 0600 55.2 92 53.0 55.0 WNW | 302 0.8 3.1 60.0 12.6 0.02 0.02 0.02 - 0.02 54.6 58.7 9.6 1.2
9/2/26 - 0500 58.0 76 50.4 54.5 NW | 325 1.1 3.5 9.8 12.6 0.00 - - - 0.00 56.3 58.7 9.6 0.2
9/2/26 - 0400 58.3 79 51.7 55.4 NW | 307 1.0 7.0 0.0 12.6 0.00 - - - 0.00 56.9 58.6 9.6 0.0
9/2/26 - 0300 58.0 79 51.6 55.2 WSW | 252 2.2 9.6 0.0 12.6 0.00 - - - 0.00 56.9 58.6 9.6 0.0
9/2/26 - 0200 57.3 78 50.5 54.3 WSW | 247 2.9 7.9 0.0 12.6 0.00 - - - 0.00 56.9 57.8 7.9 0.0
9/2/26 - 0100 57.4 78 50.6 54.3 SW | 223 3.1 9.9 0.0 12.6 0.00 - - - 0.00 45.1 72.0 20.8 0.9
9/2/26 - 0000 57.2 79 50.8 54.4 W | 259 2.6 10.2 0.0 12.6 0.00 - - - 0.00 45.1 72.0 20.8 0.9
9/1/26 - 2300 58.2 72 49.3 53.9 WSW | 245 4.1 12.1 0.0 12.6 0.00 - - - 0.00 45.1 72.0 20.8 0.9
9/1/26 - 2200 59.1 70 49.4 54.3 SW | 217 4.3 13.3 0.0 12.7 0.00 - - - 0.00 45.1 72.0 20.8 0.9
9/1/26 - 2100 59.9 67 48.7 54.2 SW | 226 4.6 15.6 0.0 12.7 0.00 - - - 0.00 45.1 72.0 20.8 0.9
9/1/26 - 2000 60.8 65 48.9 54.6 SW | 233 6.4 19.2 0.0 12.8 0.00 - - - 0.00 45.1 72.0 20.8 0.9
9/1/26 - 1900 62.4 60 48.6 55.0 SW | 222 6.8 16.4 0.0 13.0 0.00 - - - 0.00 45.1 72.0 20.8 0.9
9/1/26 - 1800 65.0 56 48.9 56.1 SW | 221 7.5 20.8 0.0 13.2 0.00 - - - 0.00 45.1 72.0 20.8 0.9
9/1/26 - 1700 66.9 50 47.9 56.1 SW | 218 7.5 19.4 0.0 13.2 0.00 - - - 0.00 45.1 72.0 19.4 0.9
9/1/26 - 1600 70.1 44 47.2 56.7 SW | 217 6.2 16.2 0.0 13.1 0.00 - - - 0.00 45.1 72.0 16.8 0.9
9/1/26 - 1500 70.4 44 47.3 56.8 SW | 229 6.0 16.8 0.0 13.1 0.00 - - - 0.00 45.1 71.7 16.8 0.9
9/1/26 - 1400 69.8 45 47.7 56.8 SW | 221 4.9 15.6 0.0 13.1 0.00 - - - 0.00 45.1 71.6 15.6 0.9
9/1/26 - 1300 67.8 52 49.4 57.2 SW | 233 5.6 15.1 0.0 13.2 0.00 - - - 0.00 45.1 68.9 15.1 0.9
9/1/26 - 1200 65.4 58 50.4 57.1 SW | 222 4.6 15.0 0.0 13.2 0.00 - - - 0.00 45.1 67.0 15.0 0.9
9/1/26 - 1100 64.1 60 50.1 56.5 SW | 226 3.3 10.5 0.0 13.3 0.00 - - - 0.00 45.1 66.0 12.7 0.9
9/1/26 - 1000 62.3 61 48.8 55.1 WSW | 251 2.0 6.5 0.0 13.3 0.00 - - - 0.00 45.1 63.7 12.7 0.9
9/1/26 - 0900 55.9 77 48.6 52.6 N | 8 1.4 5.3 0.0 13.4 0.00 - - - 0.00 45.1 60.2 12.7 0.9
9/1/26 - 0800 51.6 89 48.3 50.5 N | 2 1.1 4.6 0.0 13.4 0.00 - - - 0.00 45.1 55.4 12.7 0.9
9/1/26 - 0700 46.1 94 44.4 45.7 WSW | 257 0.6 2.5 0.0 12.5 0.00 - - - 0.00 45.1 55.4 12.7 0.9
9/1/26 - 0600 48.6 91 46.0 47.8 SSW | 213 0.9 3.4 0.0 12.5 0.00 - - - 0.00 47.0 55.4 12.7 0.9
9/1/26 - 0500 54.2 81 48.4 51.7 WSW | 248 2.4 10.8 0.0 12.6 0.00 - - - 0.00 48.7 55.4 12.7 0.9
9/1/26 - 0400 52.0 89 48.8 51.0 SSW | 201 3.0 12.7 37.6 12.6 0.00 - - - 0.00 48.7 55.2 12.7 0.9
9/1/26 - 0300 50.3 92 48.0 49.8 SSW | 206 1.4 4.3 15.2 12.6 0.00 - - - 0.00 48.7 53.2 5.4 0.3
9/1/26 - 0200 51.7 91 49.1 51.0 S | 170 0.9 5.4 0.0 12.6 0.00 - - - 0.00 49.9 53.2 5.4 0.0
9/1/26 - 0100 52.4 88 49.2 51.4 SSW | 200 1.0 3.3 0.0 12.6 0.00 - - - 0.00 45.2 82.5 19.6 0.0
9/1/26 - 0000 55.6 83 50.7 53.7 SSE | 150 1.1 6.6 0.0 12.6 0.00 - - - 0.00 45.2 82.5 19.6 0.0
8/31/26 - 2300 57.2 80 51.1 54.6 SSE | 163 1.6 6.7 0.0 12.6 0.00 - - - 0.00 45.2 82.5 19.6 0.0
8/31/26 - 2200 59.0 75 51.2 55.3 SSE | 158 2.2 7.9 0.0 12.6 0.00 - - - 0.00 45.2 82.5 19.6 0.0
8/31/26 - 2100 61.5 68 51.0 56.1 S | 178 1.9 12.1 0.0 12.7 0.00 - - - 0.00 45.2 82.5 19.6 0.0
8/31/26 - 2000 65.8 59 50.9 57.5 SSW | 205 3.6 17.5 0.0 12.8 0.00 - - - 0.00 45.2 82.5 19.6 0.0
8/31/26 - 1900 69.2 53 51.5 58.8 SW | 231 6.6 16.1 0.0 13.0 0.00 - - - 0.00 45.2 82.5 19.6 0.0
8/31/26 - 1800 72.4 47 51.1 59.5 WSW | 254 7.6 17.9 0.0 13.1 0.00 - - - 0.00 45.2 82.5 19.6 0.0
8/31/26 - 1700 74.6 42 50.0 59.4 WSW | 254 7.8 19.0 0.0 13.1 0.00 - - - 0.00 45.2 82.5 19.6 0.0
8/31/26 - 1600 75.4 40 49.4 59.3 WSW | 252 7.7 19.6 0.0 13.1 0.00 - - - 0.00 45.2 82.5 19.6 0.0
8/31/26 - 1500 79.2 35 49.5 60.2 SW | 219 4.2 14.5 0.0 13.0 0.00 - - - 0.00 45.2 82.5 14.5 0.0
8/31/26 - 1400 81.1 35 50.6 61.2 SSE | 155 2.5 9.1 0.0 13.0 0.00 - - - 0.00 45.2 82.5 9.1 0.0
8/31/26 - 1300 80.7 35 51.0 61.3 NNE | 29 3.1 8.3 0.0 13.1 0.00 - - - 0.00 45.2 82.3 8.3 0.0
8/31/26 - 1200 77.8 39 51.2 60.8 NNE | 27 3.2 7.9 0.0 13.1 0.00 - - - 0.00 45.2 80.0 7.9 0.0
8/31/26 - 1100 72.7 45 50.3 59.1 N | 11 2.4 6.1 0.0 13.1 0.00 - - - 0.00 45.2 75.7 6.1 0.0
8/31/26 - 1000 67.9 53 50.2 57.7 NE | 36 1.8 5.7 0.0 13.2 0.00 - - - 0.00 45.2 70.8 5.7 0.0
8/31/26 - 0900 62.4 60 48.5 55.0 NE | 54 1.0 3.7 0.0 13.3 0.00 - - - 0.00 45.2 65.4 3.7 0.0
8/31/26 - 0800 51.5 83 46.2 49.2 SE | 132 0.4 2.1 0.0 13.4 0.00 - - - 0.00 45.2 59.0 2.5 0.0
8/31/26 - 0700 45.8 90 43.2 44.9 SSW | 195 0.3 1.5 0.0 12.5 0.00 - - - 0.00 45.2 54.2 2.5 0.0
8/31/26 - 0600 47.8 89 44.6 46.6 SSW | 192 0.5 1.4 0.0 12.5 0.00 - - - 0.00 46.3 54.2 2.5 0.0
8/31/26 - 0500 49.2 88 45.7 48.0 SSW | 203 0.6 1.6 0.0 12.5 0.00 - - - 0.00 48.3 54.2 2.5 0.0
8/31/26 - 0400 50.5 86 46.3 48.9 SSW | 195 0.7 2.5 0.0 12.5 0.00 - - - 0.00 49.3 54.2 2.5 0.0
8/31/26 - 0300 51.9 83 46.8 49.8 S | 183 0.9 2.2 0.0 12.5 0.00 - - - 0.00 51.0 54.2 2.2 0.0
8/31/26 - 0200 53.3 79 46.9 50.5 SSW | 202 1.2 2.2 0.0 12.6 0.00 - - - 0.00 52.2 54.2 2.2 0.0
8/31/26 - 0100 55.2 75 47.3 51.5 SSW | 204 1.3 2.2 0.0 12.6 0.00 - - - 0.00 47.4 89.7 17.3 0.0
8/31/26 - 0000 57.1 70 47.6 52.5 SSW | 212 1.5 2.6 0.0 12.6 0.00 - - - 0.00 47.4 89.7 17.3 0.0
8/30/26 - 2300 59.9 65 48.0 53.7 SSW | 211 1.8 3.2 0.0 12.6 0.00 - - - 0.00 47.4 89.7 17.3 0.0
8/30/26 - 2200 65.2 55 48.6 55.9 SSW | 200 1.4 4.2 0.0 12.6 0.00 - - - 0.00 47.4 89.7 17.3 0.0
8/30/26 - 2100 70.5 46 49.0 57.8 S | 177 1.7 8.8 0.0 12.6 0.00 - - - 0.00 47.4 89.7 17.3 0.0
8/30/26 - 2000 74.7 41 49.6 59.2 S | 176 2.5 10.5 0.0 12.7 0.00 - - - 0.00 47.4 89.7 17.3 0.0
8/30/26 - 1900 79.1 36 50.1 60.5 SW | 221 4.5 14.0 0.0 12.9 0.00 - - - 0.00 47.4 89.7 17.3 0.0
8/30/26 - 1800 82.3 34 50.8 61.5 WSW | 237 5.8 17.3 0.0 13.0 0.00 - - - 0.00 47.4 89.7 17.3 0.0
8/30/26 - 1700 84.8 30 50.3 61.7 SW | 235 6.5 17.3 0.0 13.0 0.00 - - - 0.00 47.4 89.7 17.3 0.0
8/30/26 - 1600 87.1 28 50.0 61.9 WSW | 246 5.6 14.8 0.0 12.9 0.00 - - - 0.00 47.4 89.7 14.8 0.0
8/30/26 - 1500 87.9 24 46.5 60.5 SW | 236 4.4 12.3 0.0 12.9 0.00 - - - 0.00 47.4 89.7 12.3 0.0
8/30/26 - 1400 87.7 18 38.4 57.4 NE | 47 2.6 8.6 0.0 13.0 0.00 - - - 0.00 47.4 89.7 10.3 0.0
8/30/26 - 1300 85.0 21 40.7 57.6 ESE | 103 3.0 10.3 0.0 13.0 0.00 - - - 0.00 47.4 86.7 10.3 0.0
8/30/26 - 1200 83.5 23 42.1 57.8 ENE | 71 3.2 9.0 0.0 13.0 0.00 - - - 0.00 47.4 85.0 9.0 0.0
8/30/26 - 1100 80.8 26 42.6 57.4 SE | 142 2.2 8.3 0.0 13.1 0.00 - - - 0.00 47.4 82.3 8.3 0.0
8/30/26 - 1000 78.2 31 44.9 57.8 E | 81 0.8 4.3 0.0 13.1 0.00 - - - 0.00 47.4 80.0 4.3 0.0
8/30/26 - 0900 69.7 47 48.2 57.1 E | 100 0.2 1.6 0.0 13.2 0.00 - - - 0.00 47.4 75.9 3.2 0.0
8/30/26 - 0800 53.7 74 45.5 49.8 SSW | 197 0.8 2.3 0.0 13.4 0.00 - - - 0.00 47.4 62.5 3.2 0.0
8/30/26 - 0700 48.1 84 43.7 46.3 SSW | 205 1.2 3.2 0.0 12.5 0.00 - - - 0.00 47.4 52.4 3.2 0.0
8/30/26 - 0600 48.5 83 43.5 46.4 SSW | 206 1.1 3.0 0.0 12.5 0.00 - - - 0.00 48.0 52.4 3.0 0.0
8/30/26 - 0500 48.8 81 43.2 46.4 SSW | 201 1.4 2.5 0.0 12.5 0.00 - - - 0.00 48.2 52.4 2.8 0.0
8/30/26 - 0400 49.5 78 43.0 46.7 SSW | 196 1.4 2.3 0.0 12.5 0.00 - - - 0.00 49.0 52.4 2.8 0.0
8/30/26 - 0300 50.2 77 43.1 47.0 SSW | 207 1.2 2.3 0.0 12.6 0.00 - - - 0.00 49.2 52.4 2.8 0.0
8/30/26 - 0200 51.2 74 43.2 47.6 SW | 216 1.6 2.8 0.0 12.6 0.00 - - - 0.00 50.5 52.4 2.8 0.0
8/30/26 - 0100 53.1 70 43.4 48.5 SSW | 211 1.5 3.4 0.0 12.6 0.00 - - - 0.00 42.1 85.6 19.4 0.0
8/30/26 - 0000 55.7 65 44.1 50.0 SSW | 207 1.6 3.4 0.0 12.6 0.00 - - - 0.00 42.1 85.6 19.4 0.0
8/29/26 - 2300 58.3 61 45.1 51.6 SSW | 206 2.0 3.5 0.0 12.6 0.00 - - - 0.00 42.1 85.6 19.4 0.0
8/29/26 - 2200 62.0 57 46.6 53.8 SSW | 211 1.5 3.8 0.0 12.6 0.00 - - - 0.00 42.1 85.6 19.4 0.0
8/29/26 - 2100 70.6 44 47.4 57.0 SSW | 192 1.5 9.4 0.0 12.7 0.00 - - - 0.00 42.1 85.6 19.4 0.0
8/29/26 - 2000 75.6 40 49.5 59.4 SW | 230 5.6 17.6 0.0 12.7 0.00 - - - 0.00 42.1 85.6 19.4 0.0
8/29/26 - 1900 79.4 36 50.3 60.7 SW | 233 5.5 13.6 0.0 12.9 0.00 - - - 0.00 42.1 85.6 19.4 0.0
8/29/26 - 1800 82.0 32 49.6 60.8 SW | 232 5.2 15.1 0.0 13.0 0.00 - - - 0.00 42.1 85.6 19.4 0.0
8/29/26 - 1700 82.9 29 47.8 60.1 SW | 222 7.1 18.5 0.0 13.0 0.00 - - - 0.00 42.1 85.6 19.4 0.0
8/29/26 - 1600 83.4 26 45.2 59.1 SW | 234 7.1 19.4 0.0 13.0 0.00 - - - 0.00 42.1 85.6 19.4 0.0
8/29/26 - 1500 84.0 26 45.5 59.3 WSW | 247 6.4 15.6 0.0 13.0 0.00 - - - 0.00 42.1 85.6 15.6 0.0
8/29/26 - 1400 83.8 26 45.5 59.3 WSW | 247 5.3 13.7 0.0 13.0 0.00 - - - 0.00 42.1 85.1 13.7 0.0
8/29/26 - 1300 83.6 23 41.7 57.7 NNW | 327 3.3 12.2 0.0 13.0 0.00 - - - 0.00 42.1 84.6 12.2 0.0
8/29/26 - 1200 81.7 22 38.6 56.1 ENE | 60 2.7 11.7 0.0 13.1 0.00 - - - 0.00 42.1 84.1 11.7 0.0
8/29/26 - 1100 76.7 25 38.6 54.8 NNE | 19 2.2 6.6 0.0 13.1 0.00 - - - 0.00 42.1 79.4 6.6 0.0
8/29/26 - 1000 71.4 30 38.7 53.2 NE | 50 1.2 4.3 0.0 13.2 0.00 - - - 0.00 42.1 74.7 4.3 0.0
8/29/26 - 0900 61.7 40 36.7 49.0 N | 360 1.0 3.5 0.0 13.3 0.00 - - - 0.00 42.1 67.8 3.9 0.0
8/29/26 - 0800 50.2 64 37.9 44.5 ESE | 122 0.5 1.9 0.0 13.5 0.00 - - - 0.00 42.1 59.3 3.9 0.0
8/29/26 - 0700 43.0 80 37.3 40.6 SSW | 197 1.0 2.5 0.0 12.5 0.00 - - - 0.00 42.1 48.2 3.9 0.0
8/29/26 - 0600 42.8 80 37.2 40.5 SSW | 196 0.5 2.0 0.0 12.5 0.00 - - - 0.00 42.1 48.2 3.9 0.0
8/29/26 - 0500 44.3 76 37.2 41.2 SSW | 195 1.2 2.6 0.0 12.5 0.00 - - - 0.00 43.4 48.2 3.9 0.0
8/29/26 - 0400 45.1 74 37.4 41.8 SSW | 197 1.4 2.7 0.0 12.5 0.00 - - - 0.00 44.0 48.2 3.9 0.0
8/29/26 - 0300 45.0 75 37.5 41.8 S | 189 0.7 3.7 0.0 12.6 0.00 - - - 0.00 44.0 48.2 3.9 0.0
8/29/26 - 0200 47.1 69 37.6 42.9 SSW | 201 1.0 3.9 0.0 12.6 0.00 - - - 0.00 46.0 48.2 3.9 0.0
8/29/26 - 0100 49.0 66 38.2 44.1 SSW | 213 1.4 3.4 0.0 12.6 0.00 - - - 0.00 47.6 84.6 15.7 0.0
8/29/26 - 0000 51.2 63 39.2 45.6 SSW | 206 1.7 2.7 0.0 12.6 0.00 - - - 0.00 49.8 84.6 15.7 0.0
8/28/26 - 2300 55.1 59 41.1 48.2 SSW | 213 1.9 3.4 0.0 12.6 0.00 - - - 0.00 52.8 84.6 15.7 0.0
8/28/26 - 2200 59.4 60 45.3 52.1 SSW | 202 1.6 3.4 0.0 12.6 0.00 - - - 0.00 56.8 84.6 15.7 0.0
8/28/26 - 2100 65.2 54 48.1 55.7 SSW | 202 1.6 3.9 0.0 12.7 0.00 - - - 0.00 58.2 84.6 15.7 0.0
8/28/26 - 2000 74.4 40 48.6 58.6 S | 175 1.4 7.1 0.0 12.8 0.00 - - - 0.00 58.2 84.6 15.7 0.0
8/28/26 - 1900 79.7 32 47.3 59.2 SW | 217 2.9 8.9 0.0 13.0 0.00 - - - 0.00 58.2 84.6 15.7 0.0
8/28/26 - 1800 78.0 29 43.4 57.1 SSW | 203 2.5 8.9 0.0 13.1 0.00 - - - 0.00 58.2 84.6 15.7 0.0
8/28/26 - 1700 79.8 25 40.9 56.5 SW | 219 4.9 15.0 0.0 13.1 0.00 - - - 0.00 58.2 84.6 15.7 0.0
8/28/26 - 1600 82.7 17 33.0 54.6 SSW | 210 3.6 11.5 0.0 13.0 0.00 - - - 0.00 58.2 84.6 15.7 0.0
8/28/26 - 1500 79.2 13 24.4 51.3 SSW | 206 3.9 10.8 0.0 13.1 0.00 - - - 0.00 58.2 81.5 15.7 0.0
8/28/26 - 1400 76.9 14 24.0 50.5 SSW | 197 4.8 14.9 0.0 13.1 0.00 - - - 0.00 58.2 80.3 15.7 0.0
8/28/26 - 1300 78.2 13 22.5 50.6 SW | 218 6.3 15.7 0.0 13.1 0.00 - - - 0.00 58.2 80.3 15.7 0.0
8/28/26 - 1200 79.1 13 23.6 51.1 SSW | 199 4.2 12.3 0.0 13.1 0.00 - - - 0.00 58.2 80.3 13.0 0.0
8/28/26 - 1100 78.7 14 26.2 51.6 SW | 221 4.2 10.3 0.0 13.1 0.00 - - - 0.00 58.2 80.2 13.0 0.0
8/28/26 - 1000 73.2 30 38.8 54.2 S | 179 1.9 13.0 0.0 13.2 0.00 - - - 0.00 58.2 76.9 13.0 0.0
8/28/26 - 0900 65.2 48 45.0 54.0 NW | 322 0.5 2.6 0.0 13.2 0.00 - - - 0.00 58.2 68.2 3.1 0.0
8/28/26 - 0800 61.3 57 45.8 53.1 SSW | 207 0.3 1.6 0.0 12.6 0.00 - - - 0.00 58.2 63.1 3.1 0.0
8/28/26 - 0700 59.6 57 44.4 51.7 SSW | 194 0.8 2.5 0.0 12.5 0.00 - - - 0.00 58.2 62.0 3.1 0.0
8/28/26 - 0600 58.9 60 45.1 51.8 S | 169 0.4 2.2 0.0 12.5 0.00 - - - 0.00 58.2 62.0 3.1 0.0
8/28/26 - 0500 58.6 59 44.3 51.3 SSW | 193 0.4 2.5 0.0 12.5 0.00 - - - 0.00 58.2 62.0 3.1 0.0
8/28/26 - 0400 59.5 56 43.8 51.4 SSW | 192 0.9 3.1 0.0 12.5 0.00 - - - 0.00 58.7 62.0 3.1 0.0
8/28/26 - 0300 60.1 55 43.7 51.6 S | 186 0.8 3.1 0.0 12.5 0.00 - - - 0.00 59.3 62.0 3.1 0.0
8/28/26 - 0200 61.1 52 43.4 51.8 SSW | 195 0.9 2.8 0.0 12.5 0.00 - - - 0.00 60.2 62.0 2.8 0.0
8/28/26 - 0100 62.4 50 43.7 52.4 SSW | 199 1.1 2.8 0.0 12.6 0.00 - - - 0.00 53.3 96.1 20.2 0.0
8/28/26 - 0000 65.3 48 44.9 54.0 SSW | 193 1.1 3.5 0.0 12.6 0.00 - - - 0.00 53.3 96.1 20.2 0.0
8/27/26 - 2300 71.0 39 44.8 55.8 S | 174 1.2 3.9 0.0 12.6 0.00 - - - 0.00 53.3 96.1 20.2 0.0
8/27/26 - 2200 78.0 29 43.1 56.9 S | 186 2.3 9.3 0.0 12.6 0.00 - - - 0.00 53.3 96.1 20.2 0.0
8/27/26 - 2100 79.5 27 42.3 56.9 WSW | 250 3.0 13.8 0.0 12.6 0.00 - - - 0.00 53.3 96.1 20.2 0.0
8/27/26 - 2000 81.7 27 44.4 58.4 SW | 234 5.6 12.7 0.0 12.7 0.00 - - - 0.00 53.3 96.1 20.2 0.0
8/27/26 - 1900 85.9 23 43.7 58.9 SW | 229 6.7 20.2 0.0 12.9 0.00 - - - 0.00 53.3 96.1 20.2 0.0
8/27/26 - 1800 87.9 24 46.4 60.5 SW | 222 6.1 15.4 0.0 12.9 0.00 - - - 0.00 53.3 96.1 16.7 0.0
8/27/26 - 1700 91.4 23 48.6 62.0 SW | 220 6.3 14.2 0.0 12.9 0.00 - - - 0.00 53.3 96.1 16.7 0.0
8/27/26 - 1600 92.1 23 48.8 62.1 SW | 215 5.7 15.9 0.0 12.9 0.00 - - - 0.00 53.3 96.1 16.7 0.0
8/27/26 - 1500 93.7 18 43.1 60.1 SW | 228 4.6 16.2 0.0 12.9 0.00 - - - 0.00 53.3 96.1 16.7 0.0
8/27/26 - 1400 92.7 21 46.6 61.2 SW | 214 6.4 16.7 0.0 12.9 0.00 - - - 0.00 53.3 94.3 16.7 0.0
8/27/26 - 1300 90.6 24 48.5 61.8 SSW | 198 4.5 15.6 0.0 12.9 0.00 - - - 0.00 53.3 93.2 15.6 0.0
8/27/26 - 1200 91.7 21 46.6 61.2 S | 172 2.3 12.9 0.0 13.0 0.00 - - - 0.00 53.3 93.2 12.9 0.0
8/27/26 - 1100 87.5 25 47.6 60.9 ESE | 111 1.4 5.6 0.0 13.0 0.00 - - - 0.00 53.3 89.7 7.6 0.0
8/27/26 - 1000 81.9 31 48.0 60.0 NNE | 28 0.8 3.9 0.0 13.1 0.00 - - - 0.00 53.3 85.1 7.6 0.0
8/27/26 - 0900 72.9 39 46.3 57.0 E | 98 0.5 2.4 0.0 13.2 0.00 - - - 0.00 53.3 78.7 7.6 0.0
8/27/26 - 0800 60.0 59 45.6 52.4 SSW | 195 0.3 2.5 0.0 13.3 0.00 - - - 0.00 53.3 67.0 7.6 0.0
8/27/26 - 0700 54.5 68 44.2 49.6 SW | 216 1.3 7.6 0.0 12.5 0.00 - - - 0.00 53.3 57.9 7.6 0.0
8/27/26 - 0600 54.6 68 44.4 49.7 SSW | 200 1.4 4.5 0.0 12.5 0.00 - - - 0.00 53.8 57.9 4.5 0.0
8/27/26 - 0500 55.0 67 44.1 49.7 SSW | 206 1.1 3.2 0.0 12.5 0.00 - - - 0.00 54.5 57.9 3.4 0.0
8/27/26 - 0400 56.0 64 44.1 50.1 SSW | 204 1.3 3.4 0.0 12.5 0.00 - - - 0.00 55.6 57.9 3.4 0.0
8/27/26 - 0300 56.5 61 43.3 50.0 SSW | 195 1.2 3.2 0.0 12.5 0.00 - - - 0.00 56.0 57.9 3.4 0.0
8/27/26 - 0200 57.3 59 43.2 50.2 SSW | 200 1.2 3.4 0.0 12.5 0.00 - - - 0.00 56.6 57.9 3.4 0.0
8/27/26 - 0100 58.4 58 43.6 50.9 SSW | 195 1.3 3.0 0.0 12.6 0.00 - - - 0.00 44.9 94.4 16.1 0.0
Max 93.7 98 57.5 62.1 - 7.8 20.8 60.0 13.5 0.07 0.10 0.22 0.22 0.22 60.2 96.1 20.8 6.5
Avg 65.6 56 46.1 54.4 - 2.8 8.7 2.6 12.8 0.00 0.06 0.20 0.21 - - - - -
Min 42.8 13 22.5 40.5 - 0.2 1.4 0.0 12.5 0.00 0.01 0.02 0.15 0.00 42.1 48.2 2.2 0.0
Total - - - - - - - - - 0.22 - - - - - - - -